createdAt,value
2019-03-29T00:02:15.375Z,18.90
2019-03-29T00:04:45.541Z,15.30
2019-03-29T00:07:15.638Z,18.52
2019-03-29T00:09:46.666Z,15.10
2019-03-29T00:12:16.728Z,15.80
2019-03-29T00:14:46.938Z,17.40
2019-03-29T00:17:17.951Z,16.60
2019-03-29T00:19:48.295Z,16.77
2019-03-29T00:22:18.450Z,17.87
2019-03-29T00:24:48.572Z,17.05
2019-03-29T00:27:20.399Z,19.92
2019-03-29T00:29:50.812Z,15.03
2019-03-29T00:32:20.988Z,16.40
2019-03-29T00:34:52.033Z,15.65
2019-03-29T00:37:22.188Z,15.72
2019-03-29T00:39:52.245Z,17.42
2019-03-29T00:42:22.245Z,16.32
2019-03-29T00:44:52.911Z,15.53
2019-03-29T00:47:23.574Z,15.35
2019-03-29T00:49:53.692Z,16.93
2019-03-29T00:52:24.206Z,14.10
2019-03-29T00:54:55.473Z,15.13
2019-03-29T00:57:25.666Z,14.65
2019-03-29T00:59:55.733Z,14.10
2019-03-29T01:02:25.798Z,15.93
2019-03-29T01:04:56.367Z,14.47
2019-03-29T01:07:26.602Z,18.95
2019-03-29T01:09:56.951Z,14.50
2019-03-29T01:12:28.125Z,18.57
2019-03-29T01:14:58.269Z,19.87
2019-03-29T01:17:30.983Z,19.67
2019-03-29T01:20:01.175Z,13.58
2019-03-29T01:22:33.246Z,16.87
2019-03-29T01:25:03.982Z,18.25
2019-03-29T01:27:34.039Z,15.68
2019-03-29T01:30:06.356Z,15.03
2019-03-29T01:32:36.575Z,17.60
2019-03-29T01:35:08.335Z,17.62
2019-03-29T01:37:42.877Z,17.40
2019-03-29T01:40:14.061Z,17.17
2019-03-29T01:42:45.085Z,21.35
2019-03-29T01:45:15.494Z,16.65
2019-03-29T01:47:45.760Z,20.32
2019-03-29T01:50:15.914Z,16.42
2019-03-29T01:52:45.998Z,15.90
2019-03-29T01:55:16.339Z,17.17
2019-03-29T01:57:46.573Z,19.12
2019-03-29T02:00:31.622Z,16.17
2019-03-29T02:03:04.003Z,16.42
2019-03-29T02:05:34.087Z,17.87
2019-03-29T02:08:05.710Z,19.65
2019-03-29T02:10:35.899Z,17.77
2019-03-29T02:13:13.261Z,17.00
2019-03-29T02:15:48.706Z,16.75
2019-03-29T02:18:19.007Z,18.75
2019-03-29T02:20:50.019Z,17.60
2019-03-29T02:23:21.967Z,18.05
2019-03-29T02:25:52.197Z,16.65
2019-03-29T02:28:22.319Z,18.50
2019-03-29T02:30:52.460Z,19.00
2019-03-29T02:33:22.665Z,22.13
2019-03-29T02:35:52.804Z,17.80
2019-03-29T02:38:25.414Z,20.17
2019-03-29T02:40:58.328Z,18.07
2019-03-29T02:43:30.100Z,16.87
2019-03-29T02:46:02.669Z,15.90
2019-03-29T02:48:34.630Z,18.83
2019-03-29T02:51:05.227Z,15.23
2019-03-29T02:53:35.500Z,17.52
2019-03-29T02:56:05.618Z,19.10
2019-03-29T02:58:35.842Z,16.67
2019-03-29T03:01:05.933Z,17.55
2019-03-29T03:03:36.082Z,13.98
2019-03-29T03:06:10.479Z,20.23
2019-03-29T03:08:40.662Z,14.90
2019-03-29T03:11:26.105Z,18.57
2019-03-29T03:13:57.284Z,17.75
2019-03-29T03:16:27.402Z,17.10
2019-03-29T03:18:57.547Z,17.32
2019-03-29T03:21:27.824Z,21.20
2019-03-29T03:23:57.885Z,21.00
2019-03-29T03:26:28.099Z,18.17
2019-03-29T03:28:58.158Z,18.55
2019-03-29T03:31:30.636Z,18.77
2019-03-29T03:34:00.722Z,20.63
2019-03-29T03:36:30.914Z,18.62
2019-03-29T03:39:01.072Z,18.73
2019-03-29T03:41:32.727Z,17.00
2019-03-29T03:44:03.635Z,19.55
2019-03-29T03:46:35.844Z,17.98
2019-03-29T03:49:06.270Z,19.60
2019-03-29T03:51:36.514Z,18.00
2019-03-29T03:54:09.216Z,17.23
2019-03-29T03:56:41.854Z,16.87
2019-03-29T03:59:13.923Z,19.57
2019-03-29T04:01:46.783Z,14.95
2019-03-29T04:04:18.669Z,15.50
2019-03-29T04:06:50.847Z,17.92
2019-03-29T04:09:22.702Z,16.17
2019-03-29T04:11:52.933Z,16.75
2019-03-29T04:14:23.020Z,17.42
2019-03-29T04:16:53.593Z,14.93
2019-03-29T04:19:23.823Z,17.90
2019-03-29T04:21:55.561Z,19.80
2019-03-29T04:24:25.887Z,17.02
2019-03-29T04:26:56.128Z,18.17
2019-03-29T04:29:27.373Z,17.32
2019-03-29T04:31:57.668Z,19.70
2019-03-29T04:34:28.862Z,17.95
2019-03-29T04:36:59.124Z,18.00
2019-03-29T04:39:31.322Z,19.27
2019-03-29T04:42:01.779Z,15.98
2019-03-29T04:44:31.901Z,20.35
2019-03-29T04:47:02.267Z,19.37
2019-03-29T04:49:32.453Z,19.70
2019-03-29T04:52:04.176Z,19.30
2019-03-29T04:54:34.503Z,21.60
2019-03-29T04:57:04.659Z,16.77
2019-03-29T04:59:34.781Z,21.80
2019-03-29T05:02:05.005Z,20.17
2019-03-29T05:04:35.070Z,18.95
2019-03-29T05:07:05.458Z,18.15
2019-03-29T05:09:35.639Z,18.57
2019-03-29T05:12:05.786Z,21.65
2019-03-29T05:14:36.111Z,18.50
2019-03-29T05:17:17.681Z,16.32
2019-03-29T05:20:02.859Z,18.67
2019-03-29T05:22:33.286Z,20.05
2019-03-29T05:25:06.625Z,19.80
2019-03-29T05:30:07.641Z,23.22
2019-03-29T05:32:38.545Z,21.52
2019-03-29T05:35:09.047Z,18.17
2019-03-29T05:37:39.271Z,24.20
2019-03-29T05:40:11.377Z,18.92
2019-03-29T05:42:41.451Z,16.12
2019-03-29T05:45:12.298Z,19.60
2019-03-29T05:47:42.397Z,22.93
2019-03-29T05:50:12.936Z,17.65
2019-03-29T05:52:43.152Z,18.20
2019-03-29T05:55:13.374Z,16.12
2019-03-29T05:57:43.643Z,20.92
2019-03-29T06:00:17.629Z,16.10
2019-03-29T06:02:47.670Z,15.40
2019-03-29T06:05:18.739Z,15.95
2019-03-29T06:07:49.039Z,17.95
2019-03-29T06:10:20.913Z,18.25
2019-03-29T06:12:51.016Z,17.02
2019-03-29T06:15:21.524Z,14.03
2019-03-29T06:17:51.659Z,14.38
2019-03-29T06:20:21.901Z,18.85
2019-03-29T06:22:52.079Z,15.43
2019-03-29T06:25:23.677Z,14.43
2019-03-29T06:27:55.298Z,13.95
2019-03-29T06:30:29.711Z,17.45
2019-03-29T06:33:01.121Z,19.12
2019-03-29T06:35:33.306Z,12.40
2019-03-29T06:38:08.734Z,19.27
2019-03-29T06:40:39.055Z,23.22
2019-03-29T06:43:09.485Z,19.62
2019-03-29T06:45:47.662Z,16.17
2019-03-29T06:48:11.469Z,17.27
2019-03-29T06:50:41.629Z,20.72
2019-03-29T06:53:12.740Z,16.10
2019-03-29T06:55:42.823Z,14.20
2019-03-29T06:58:14.490Z,18.27
2019-03-29T07:00:46.667Z,15.65
2019-03-29T07:03:17.293Z,22.27
2019-03-29T07:05:47.467Z,22.70
2019-03-29T07:08:17.519Z,18.65
2019-03-29T07:10:47.695Z,18.70
2019-03-29T07:13:19.511Z,20.00
2019-03-29T07:15:51.245Z,13.28
2019-03-29T07:18:21.393Z,14.68
2019-03-29T07:20:52.147Z,14.85
2019-03-29T07:23:23.944Z,14.83
2019-03-29T07:25:56.344Z,15.38
2019-03-29T07:28:25.894Z,13.98
2019-03-29T07:30:55.883Z,14.78
2019-03-29T07:33:25.901Z,15.50
2019-03-29T07:35:56.119Z,12.55
2019-03-29T07:38:26.316Z,11.60
2019-03-29T07:40:56.572Z,13.38
2019-03-29T07:43:26.869Z,13.32
2019-03-29T07:45:57.042Z,16.00
2019-03-29T07:48:27.081Z,13.62
2019-03-29T07:50:57.160Z,14.85
2019-03-29T07:53:27.876Z,11.03
2019-03-29T07:55:59.582Z,13.65
2019-03-29T07:58:32.903Z,13.28
2019-03-29T08:01:04.581Z,11.28
2019-03-29T08:03:34.606Z,9.18
2019-03-29T08:06:06.154Z,17.50
2019-03-29T08:08:36.286Z,12.37
2019-03-29T08:11:06.479Z,12.10
2019-03-29T08:13:36.705Z,13.28
2019-03-29T08:16:06.819Z,10.80
2019-03-29T08:18:37.129Z,11.08
2019-03-29T08:21:07.813Z,10.28
2019-03-29T08:23:37.874Z,11.45
2019-03-29T08:26:08.475Z,16.95
2019-03-29T08:28:38.600Z,12.00
2019-03-29T08:31:08.942Z,9.48
2019-03-29T08:33:39.084Z,11.85
2019-03-29T08:36:09.479Z,10.30
2019-03-29T08:38:40.024Z,9.63
2019-03-29T08:41:10.223Z,11.85
2019-03-29T08:43:40.530Z,10.45
2019-03-29T08:46:10.672Z,12.10
2019-03-29T08:48:40.881Z,12.28
2019-03-29T08:51:13.155Z,11.12
2019-03-29T08:53:46.252Z,10.55
2019-03-29T08:56:16.470Z,11.15
2019-03-29T08:58:46.802Z,10.00
2019-03-29T09:01:19.492Z,14.63
2019-03-29T09:04:03.246Z,12.75
2019-03-29T09:06:22.620Z,12.05
2019-03-29T09:08:56.317Z,11.73
2019-03-29T09:13:55.753Z,11.40
2019-03-29T09:16:25.978Z,11.25
2019-03-29T09:18:57.578Z,10.40
2019-03-29T09:21:27.659Z,13.43
2019-03-29T09:23:57.885Z,11.33
2019-03-29T09:26:28.305Z,11.63
2019-03-29T09:28:58.456Z,10.82
2019-03-29T09:31:28.724Z,11.40
2019-03-29T09:33:58.873Z,13.43
2019-03-29T09:36:29.068Z,13.28
2019-03-29T09:38:59.130Z,13.55
2019-03-29T09:41:29.355Z,13.38
2019-03-29T09:44:01.118Z,12.58
2019-03-29T09:46:31.771Z,10.15
2019-03-29T09:49:08.025Z,9.48
2019-03-29T09:51:36.635Z,13.08
2019-03-29T09:54:06.798Z,9.83
2019-03-29T09:56:39.215Z,9.60
2019-03-29T09:59:08.732Z,13.28
2019-03-29T10:01:38.833Z,10.88
2019-03-29T10:04:08.810Z,14.25
2019-03-29T10:06:39.015Z,10.93
2019-03-29T10:09:09.082Z,10.18
2019-03-29T10:11:39.143Z,11.12
2019-03-29T10:14:10.994Z,10.80
2019-03-29T10:16:40.996Z,9.75
2019-03-29T10:19:11.104Z,10.08
2019-03-29T10:21:41.663Z,11.88
2019-03-29T10:24:11.785Z,10.65
2019-03-29T10:26:41.954Z,9.75
2019-03-29T10:29:12.081Z,10.00
2019-03-29T10:31:42.153Z,9.08
2019-03-29T10:34:12.141Z,8.78
2019-03-29T10:36:42.348Z,9.65
2019-03-29T10:39:13.159Z,10.00
2019-03-29T10:41:43.369Z,9.68
2019-03-29T10:44:13.588Z,10.05
2019-03-29T10:46:43.739Z,8.83
2019-03-29T10:49:13.922Z,9.30
2019-03-29T10:51:43.989Z,10.82
2019-03-29T10:54:14.283Z,9.40
2019-03-29T10:56:44.275Z,8.58
2019-03-29T10:59:26.729Z,9.60
2019-03-29T11:01:46.290Z,11.38
2019-03-29T11:04:16.379Z,7.55
2019-03-29T11:06:46.607Z,7.97
2019-03-29T11:09:17.068Z,8.25
2019-03-29T11:11:47.293Z,7.08
2019-03-29T11:14:17.408Z,6.28
2019-03-29T11:16:50.403Z,6.97
2019-03-29T11:19:20.482Z,9.55
2019-03-29T11:21:50.650Z,10.40
2019-03-29T11:24:20.786Z,9.58
2019-03-29T11:26:52.450Z,10.70
2019-03-29T11:29:25.626Z,8.10
2019-03-29T11:31:55.717Z,6.30
2019-03-29T11:34:25.926Z,9.78
2019-03-29T11:36:56.168Z,8.68
2019-03-29T11:39:27.590Z,8.15
2019-03-29T11:42:03.186Z,10.03
2019-03-29T11:44:32.706Z,8.23
2019-03-29T11:47:06.102Z,9.88
2019-03-29T11:49:36.535Z,7.63
2019-03-29T11:52:11.056Z,6.87
2019-03-29T11:54:42.120Z,8.55
2019-03-29T11:57:12.201Z,8.78
2019-03-29T11:59:43.767Z,7.87
2019-03-29T12:02:13.861Z,10.20
2019-03-29T12:04:44.115Z,9.08
2019-03-29T12:07:14.241Z,7.40
2019-03-29T12:09:44.439Z,9.83
2019-03-29T12:12:14.570Z,10.25
2019-03-29T12:14:44.723Z,10.15
2019-03-29T12:17:16.285Z,10.45
2019-03-29T12:19:46.498Z,7.87
2019-03-29T12:22:16.778Z,9.50
2019-03-29T12:24:47.546Z,12.85
2019-03-29T12:27:17.666Z,8.23
2019-03-29T12:29:47.924Z,11.53
2019-03-29T12:32:18.245Z,8.88
2019-03-29T12:34:48.301Z,9.78
2019-03-29T12:37:18.453Z,10.18
2019-03-29T12:39:51.560Z,9.63
2019-03-29T12:42:22.673Z,10.28
2019-03-29T12:44:52.777Z,10.30
2019-03-29T12:47:25.263Z,9.15
2019-03-29T12:49:55.429Z,15.77
2019-03-29T12:52:25.486Z,12.47
2019-03-29T12:54:55.484Z,8.40
2019-03-29T12:57:25.791Z,9.30
2019-03-29T12:59:56.356Z,10.75
2019-03-29T13:02:26.492Z,10.08
2019-03-29T13:04:56.698Z,9.63
2019-03-29T13:07:26.924Z,10.70
2019-03-29T13:09:57.050Z,8.90
2019-03-29T13:12:27.376Z,9.65
2019-03-29T13:15:06.595Z,8.93
2019-03-29T13:17:36.854Z,10.55
2019-03-29T13:20:08.067Z,8.68
2019-03-29T13:22:38.614Z,10.45
2019-03-29T13:25:10.511Z,10.88
2019-03-29T13:27:40.561Z,11.57
2019-03-29T13:30:11.883Z,10.78
2019-03-29T13:32:42.082Z,9.20
2019-03-29T13:35:14.742Z,9.85
2019-03-29T13:37:44.955Z,10.25
2019-03-29T13:40:15.185Z,11.45
2019-03-29T13:42:45.391Z,10.80
2019-03-29T13:45:15.727Z,12.35
2019-03-29T13:47:45.919Z,10.50
2019-03-29T13:50:19.381Z,11.95
2019-03-29T13:55:18.780Z,10.98
2019-03-29T13:57:48.990Z,10.30
2019-03-29T14:00:19.683Z,11.38
2019-03-29T14:02:49.863Z,9.08
2019-03-29T14:05:20.120Z,9.68
2019-03-29T14:07:50.221Z,9.33
2019-03-29T14:10:22.469Z,9.05
2019-03-29T14:12:52.438Z,7.83
2019-03-29T14:15:22.761Z,10.00
2019-03-29T14:17:53.291Z,10.13
2019-03-29T14:20:33.840Z,9.25
2019-03-29T14:23:04.842Z,10.38
2019-03-29T14:25:35.090Z,12.80
2019-03-29T14:28:08.514Z,9.40
2019-03-29T14:30:38.747Z,8.78
2019-03-29T14:33:12.245Z,9.28
2019-03-29T14:35:42.457Z,8.05
2019-03-29T14:41:03.430Z,12.15
2019-03-29T14:43:34.884Z,10.80
2019-03-29T14:48:55.718Z,11.33
2019-03-29T14:51:25.779Z,13.28
2019-03-29T14:53:56.107Z,11.63
2019-03-29T14:56:26.222Z,9.08
2019-03-29T14:58:56.359Z,10.98
2019-03-29T15:01:26.430Z,10.10
2019-03-29T15:03:57.726Z,9.45
2019-03-29T15:06:27.938Z,10.45
2019-03-29T15:08:58.638Z,11.43
2019-03-29T15:11:28.787Z,11.90
2019-03-29T15:13:58.921Z,9.58
2019-03-29T15:16:30.101Z,12.15
2019-03-29T15:19:00.245Z,8.50
2019-03-29T15:21:30.519Z,12.45
2019-03-29T15:24:00.726Z,12.37
2019-03-29T15:26:32.689Z,10.53
2019-03-29T15:29:05.602Z,10.90
2019-03-29T15:31:35.910Z,11.68
2019-03-29T15:34:07.673Z,15.28
2019-03-29T15:36:39.866Z,11.73
2019-03-29T15:39:12.341Z,14.75
2019-03-29T15:41:42.507Z,14.37
2019-03-29T15:44:12.578Z,11.93
2019-03-29T15:46:42.881Z,10.90
2019-03-29T15:49:15.946Z,10.23
2019-03-29T15:51:46.481Z,12.98
2019-03-29T15:54:17.644Z,13.43
2019-03-29T15:56:47.810Z,11.40
2019-03-29T15:59:18.002Z,14.23
2019-03-29T16:01:48.261Z,13.28
2019-03-29T16:04:18.431Z,12.47
2019-03-29T16:09:45.307Z,13.45
2019-03-29T16:12:17.370Z,12.23
2019-03-29T16:14:47.897Z,15.43
2019-03-29T16:17:18.428Z,11.68
2019-03-29T16:19:53.257Z,10.82
2019-03-29T16:22:23.896Z,18.23
2019-03-29T16:24:57.694Z,11.90
2019-03-29T16:27:28.634Z,11.57
2019-03-29T16:29:59.162Z,11.60
2019-03-29T16:32:29.589Z,10.93
2019-03-29T16:34:59.915Z,13.13
2019-03-29T16:37:33.820Z,13.38
2019-03-29T16:40:06.297Z,13.50
2019-03-29T16:42:38.261Z,12.98
2019-03-29T16:45:09.095Z,10.70
2019-03-29T16:47:39.830Z,13.58
2019-03-29T16:50:10.745Z,13.93
2019-03-29T16:52:41.399Z,10.70
2019-03-29T16:55:13.794Z,15.58
2019-03-29T16:57:49.424Z,12.33
2019-03-29T17:00:20.055Z,13.22
2019-03-29T17:02:50.385Z,18.23
2019-03-29T17:05:20.881Z,14.90
2019-03-29T17:07:51.231Z,14.03
2019-03-29T17:10:21.861Z,15.25
2019-03-29T17:12:52.530Z,11.90
2019-03-29T17:15:23.125Z,13.80
2019-03-29T17:17:53.451Z,13.68
2019-03-29T17:20:25.311Z,21.15
2019-03-29T17:22:55.738Z,20.52
2019-03-29T17:25:26.264Z,25.10
2019-03-29T17:27:57.003Z,19.70
2019-03-29T17:31:01.014Z,21.97
2019-03-29T17:33:35.740Z,16.67
2019-03-29T17:36:06.578Z,20.37
2019-03-29T17:38:37.196Z,22.13
2019-03-29T17:41:09.188Z,14.87
2019-03-29T17:43:39.908Z,21.62
2019-03-29T17:46:16.516Z,16.90
2019-03-29T17:48:45.673Z,17.45
2019-03-29T17:51:16.023Z,18.70
2019-03-29T17:53:46.324Z,17.67
2019-03-29T17:56:16.852Z,15.65
2019-03-29T17:58:47.279Z,15.30
2019-03-29T18:01:17.705Z,18.70
2019-03-29T18:03:48.235Z,31.75
2019-03-29T18:06:20.301Z,24.23
2019-03-29T18:08:52.882Z,26.48
2019-03-29T18:11:26.581Z,26.17
2019-03-29T18:14:01.000Z,27.70
2019-03-29T18:16:33.168Z,31.17
2019-03-29T18:22:01.878Z,22.90
2019-03-29T18:24:41.234Z,23.77
2019-03-29T18:27:13.173Z,20.25
2019-03-29T18:29:46.468Z,21.50
2019-03-29T18:32:19.761Z,21.42
2019-03-29T18:34:54.797Z,23.83
2019-03-29T18:39:56.638Z,22.93
2019-03-29T18:42:30.174Z,16.52
2019-03-29T18:47:37.887Z,27.62
2019-03-29T18:50:19.612Z,45.58
2019-03-29T18:52:52.462Z,37.50
2019-03-29T18:55:25.755Z,37.42
2019-03-29T18:57:56.285Z,67.27
2019-03-29T19:00:32.251Z,43.83
2019-03-29T19:03:03.284Z,34.23
2019-03-29T19:05:34.021Z,28.00
2019-03-29T19:08:05.262Z,31.35
2019-03-29T19:10:35.587Z,34.00
2019-03-29T19:13:07.448Z,34.43
2019-03-29T19:15:38.292Z,39.58
2019-03-29T19:18:11.681Z,45.80
2019-03-29T19:20:48.149Z,37.05
2019-03-29T19:23:20.114Z,33.90
2019-03-29T19:25:50.617Z,36.93
2019-03-29T19:28:21.313Z,38.00
2019-03-29T19:30:51.804Z,36.63
2019-03-29T19:33:22.235Z,31.42
2019-03-29T19:35:52.556Z,31.97
2019-03-29T19:38:23.325Z,35.90
2019-03-29T19:40:53.714Z,40.92
2019-03-29T19:43:25.776Z,33.13
2019-03-29T19:45:56.297Z,33.20
2019-03-29T19:48:26.736Z,30.65
2019-03-29T19:51:01.368Z,38.83
2019-03-29T19:53:34.403Z,34.03
2019-03-29T19:56:05.191Z,36.53
2019-03-29T19:58:37.653Z,37.65
2019-03-29T20:01:08.222Z,40.78
2019-03-29T20:03:41.857Z,35.85
2019-03-29T20:06:12.118Z,36.48
2019-03-29T20:08:42.172Z,38.48
2019-03-29T20:11:12.247Z,35.83
2019-03-29T20:13:42.382Z,38.98
2019-03-29T20:16:12.567Z,40.00
2019-03-29T20:18:43.708Z,39.10
2019-03-29T20:21:13.963Z,36.40
2019-03-29T20:23:47.584Z,36.20
2019-03-29T20:26:17.705Z,35.28
2019-03-29T20:28:48.368Z,33.92
2019-03-29T20:31:20.610Z,38.83
2019-03-29T20:33:50.837Z,31.73
2019-03-29T20:36:23.233Z,35.78
2019-03-29T20:38:52.901Z,32.25
2019-03-29T20:41:23.218Z,26.35
2019-03-29T20:43:53.478Z,35.75
2019-03-29T20:46:23.786Z,28.67
2019-03-29T20:48:54.103Z,37.90
2019-03-29T20:51:24.120Z,51.85
2019-03-29T20:53:54.788Z,58.85
2019-03-29T20:56:28.973Z,37.55
2019-03-29T20:58:59.092Z,34.27
2019-03-29T21:01:29.229Z,30.02
2019-03-29T21:03:59.306Z,33.85
2019-03-29T21:06:29.497Z,116.12
2019-03-29T21:08:59.621Z,53.10
2019-03-29T21:11:31.415Z,42.20
2019-03-29T21:14:01.681Z,33.23
2019-03-29T21:16:31.733Z,34.90
2019-03-29T21:19:01.840Z,33.88
2019-03-29T21:21:32.046Z,33.08
2019-03-29T21:24:04.011Z,35.65
2019-03-29T21:26:36.635Z,33.80
2019-03-29T21:29:06.651Z,31.35
2019-03-29T21:31:36.972Z,36.25
2019-03-29T21:34:07.193Z,34.92
2019-03-29T21:36:40.361Z,32.40
2019-03-29T21:39:12.341Z,29.30
2019-03-29T21:41:44.192Z,26.95
2019-03-29T21:44:14.338Z,32.75
2019-03-29T21:46:45.585Z,31.30
2019-03-29T21:49:15.894Z,27.20
2019-03-29T21:51:46.144Z,32.48
2019-03-29T21:54:16.334Z,35.08
2019-03-29T21:56:46.438Z,33.23
2019-03-29T21:59:17.440Z,30.40
2019-03-29T22:01:47.685Z,32.03
2019-03-29T22:04:17.936Z,33.28
2019-03-29T22:06:52.284Z,39.95
2019-03-29T22:09:36.172Z,35.23
2019-03-29T22:11:54.354Z,38.23
2019-03-29T22:14:32.486Z,39.58
2019-03-29T22:17:10.458Z,33.67
2019-03-29T22:19:42.668Z,36.33
2019-03-29T22:22:12.791Z,33.95
2019-03-29T22:24:42.989Z,37.30
2019-03-29T22:27:13.203Z,38.30
2019-03-29T22:29:43.422Z,34.75
2019-03-29T22:32:13.588Z,38.67
2019-03-29T22:34:47.398Z,35.23
2019-03-29T22:37:17.552Z,33.63
2019-03-29T22:39:47.725Z,29.45
2019-03-29T22:42:17.810Z,35.23
2019-03-29T22:44:47.964Z,38.13
2019-03-29T22:47:18.178Z,36.13
2019-03-29T22:49:48.414Z,40.12
2019-03-29T22:52:26.224Z,38.80
2019-03-29T22:54:56.225Z,35.60
2019-03-29T22:57:26.359Z,34.63
2019-03-29T23:00:19.738Z,34.00
2019-03-29T23:02:52.041Z,36.98
2019-03-29T23:05:22.467Z,41.35
2019-03-29T23:07:52.891Z,39.58
2019-03-29T23:10:23.215Z,35.95
2019-03-29T23:12:53.648Z,31.68
2019-03-29T23:15:24.070Z,37.35
2019-03-29T23:17:57.571Z,37.28
2019-03-29T23:23:00.265Z,37.10
2019-03-29T23:25:30.795Z,32.83
2019-03-29T23:28:03.067Z,33.80
2019-03-29T23:30:33.698Z,33.08
2019-03-29T23:33:05.658Z,38.35
2019-03-29T23:35:36.087Z,30.55
2019-03-29T23:38:08.153Z,34.83
2019-03-29T23:40:38.577Z,36.90
2019-03-29T23:43:09.107Z,36.60
2019-03-29T23:45:41.482Z,38.65
2019-03-29T23:48:13.851Z,34.63
2019-03-29T23:50:44.278Z,38.42
2019-03-29T23:53:14.806Z,38.10
2019-03-29T23:55:45.233Z,37.23
2019-03-29T23:58:15.558Z,29.80
